フォークランド諸島 の空港の天気 - METARとTAF

マウント・プレザント空軍基地 ( EGYP / MPN ) - フォークランド諸島 フォークランド諸島
飛行場実況気象(Metar)
観測時間07/17 05:50 FKST (07/17 08:50 UTC)
風向・風速西 5m/s
視程10km以上
天気現象
少しの雲 雲底高度 550m
全天の8割程度の雲 雲底高度 1100m
気温1℃
湿度93%
気圧1022hPa
METAREGYP 170850Z 28010KT 9999 FEW018 BKN036 01/M00 Q1022 BLU TEMPO 4000 -SHRASN SCT014 GRN
過去の天気等 Google飛行場航空写真 Wunderground天気予報

過去48時間のMETAR

飛行場予報(TAF)
発表時間: 7/17 04:34 FKST (7/17 07:34 UTC)
予報対象時間: 17日6時 FKST ~ 18日0時 FKST
風向・風速西 6m/s
視程10km以上
少しの雲 雲底高度 670m
全天の8割程度の雲 雲底高度 1070m
17日6時 FKST ~ 17日24時 FKST に一時的に
視程4000m
天気現象弱いしゅう雨雪
全天の8割程度の雲 雲底高度 430m
17日6時 FKST ~ 17日24時 FKST に 確率 30% で一時的に
視程2000m
天気現象弱いしゅう雪
全天の4割程度の雲 雲底高度 180m
TAF EGYP 170734Z 1709/1803 28011KT 9999 FEW022 BKN035
TEMPO 1709/1803 4000 -SHRASN BKN014
PROB30 TEMPO 1709/1803 2000 -SHSN SCT006